createdAt,value
2018-08-03T12:34:15.677Z,27.2
2018-08-03T12:35:04.899Z,27.2
2018-08-03T12:35:55.751Z,27.2
2018-08-03T12:36:46.399Z,27.3
2018-08-03T12:37:36.442Z,27.2
2018-08-03T12:38:25.884Z,27.3
2018-08-03T12:39:16.021Z,27.3
2018-08-03T12:40:06.713Z,27.2
2018-08-03T12:40:56.133Z,27.2
2018-08-03T12:41:46.182Z,27.2
2018-08-03T12:42:36.548Z,27.2
2018-08-03T12:43:27.505Z,27.2
2018-08-03T12:44:16.962Z,27.2
2018-08-03T12:45:06.820Z,27.3
2018-08-03T12:45:57.457Z,27.3
2018-08-03T12:46:46.894Z,27.3
2018-08-03T12:47:35.895Z,27.3
2018-08-03T12:48:27.006Z,27.3
2018-08-03T12:49:17.083Z,27.3
2018-08-03T12:50:07.439Z,27.2
2018-08-03T12:50:57.289Z,27.2
2018-08-03T12:51:48.128Z,27.2
2018-08-03T12:52:38.524Z,27.2
2018-08-03T12:53:27.195Z,27.2
2018-08-03T12:54:17.485Z,27.2
2018-08-03T12:55:07.603Z,27.2
2018-08-03T12:55:57.647Z,27.2
2018-08-03T12:56:48.250Z,27.2
2018-08-03T12:57:38.002Z,27.3
2018-08-03T12:58:27.789Z,27.3
2018-08-03T12:59:17.951Z,27.3
2018-08-03T13:00:07.961Z,27.3
2018-08-03T13:00:58.249Z,27.3
2018-08-03T13:01:48.312Z,27.2
2018-08-03T13:02:39.634Z,27.2
2018-08-03T13:04:36.114Z,27.1
2018-08-03T13:05:25.898Z,27.1
2018-08-03T13:06:15.161Z,27.1
2018-08-03T13:07:05.711Z,27.1
2018-08-03T13:08:01.955Z,27.1
2018-08-03T13:09:00.196Z,27.1
2018-08-03T13:09:36.739Z,27.1
2018-08-03T13:10:25.960Z,27.1
2018-08-03T13:11:15.736Z,27.1
2018-08-03T13:12:06.406Z,27.2
2018-08-03T13:12:55.822Z,27.2
2018-08-03T13:13:46.444Z,27.2
2018-08-03T13:14:35.828Z,27.2
2018-08-03T13:15:26.171Z,27.2
2018-08-03T13:16:16.193Z,27.2
2018-08-03T13:17:05.966Z,27.3
2018-08-03T13:17:57.158Z,27.3
2018-08-03T13:18:46.617Z,27.3
2018-08-03T13:19:37.176Z,27.4
2018-08-03T13:20:26.444Z,27.3
2018-08-03T13:21:17.475Z,27.4
2018-08-03T13:22:07.558Z,27.4
2018-08-03T13:22:56.718Z,27.3
2018-08-03T13:23:46.533Z,27.3
2018-08-03T13:24:36.268Z,27.3
2018-08-03T13:25:26.280Z,27.3
2018-08-03T13:26:17.005Z,27.3
2018-08-03T13:27:06.726Z,27.3
2018-08-03T13:27:57.420Z,27.3
2018-08-03T13:28:48.029Z,27.3
2018-08-03T13:29:37.853Z,27.3
2018-08-03T13:30:27.056Z,27.3
2018-08-03T13:31:17.906Z,27.3
2018-08-03T13:32:07.944Z,27.4
2018-08-03T13:32:58.344Z,27.3
2018-08-03T13:33:48.055Z,27.4
2018-08-03T13:34:37.844Z,27.4
2018-08-03T13:35:28.354Z,27.3
2018-08-03T13:36:19.359Z,27.3
2018-08-03T13:37:07.721Z,27.4
2018-08-03T13:37:57.802Z,27.3
2018-08-03T13:38:48.450Z,27.3
2018-08-03T13:39:38.514Z,27.3
2018-08-03T13:40:28.311Z,27.3
2018-08-03T13:41:18.367Z,27.3
2018-08-03T13:42:08.982Z,27.3
2018-08-03T13:42:58.407Z,27.3
2018-08-03T13:43:48.875Z,27.3
2018-08-03T13:44:39.608Z,27.3
2018-08-03T13:45:28.439Z,27.3
2018-08-03T13:46:19.023Z,27.3
2018-08-03T13:47:09.401Z,27.3
2018-08-03T13:47:59.172Z,27.2
2018-08-03T13:48:48.393Z,27.1
2018-08-03T13:49:39.047Z,27.2
2018-08-03T13:50:30.638Z,27.2
2018-08-03T13:51:19.489Z,27.3
2018-08-03T13:52:09.532Z,27.3
2018-08-03T13:52:59.839Z,27.3
2018-08-03T13:53:49.299Z,27.3
2018-08-03T13:54:39.458Z,27.2
2018-08-03T13:55:30.091Z,27.2
2018-08-03T13:56:19.305Z,27.2
2018-08-03T13:57:09.611Z,27.2
2018-08-03T13:58:00.308Z,27.2
2018-08-03T13:58:48.915Z,27.2
2018-08-03T13:59:40.139Z,27.2
2018-08-03T14:00:29.370Z,27.2
2018-08-03T14:01:19.665Z,27.2
2018-08-03T14:02:10.044Z,27.1
2018-08-03T14:03:00.095Z,27.1
2018-08-03T14:03:49.823Z,27.2
2018-08-03T14:04:39.716Z,27.2
2018-08-03T14:05:29.718Z,27.2
2018-08-03T14:06:19.785Z,27.2
2018-08-03T14:07:09.666Z,27.2
2018-08-03T14:08:01.026Z,27.3
2018-08-03T14:08:51.105Z,27.2
2018-08-03T14:09:41.165Z,27.3
2018-08-03T14:10:30.915Z,27.2
2018-08-03T14:11:20.990Z,27.2
2018-08-03T14:12:12.071Z,27.3
2018-08-03T14:13:01.405Z,27.2
2018-08-03T14:13:51.470Z,27.2
2018-08-03T14:14:40.150Z,27.2
2018-08-03T14:15:30.823Z,27.1
2018-08-03T14:16:21.151Z,27.1
2018-08-03T14:17:11.451Z,27.1
2018-08-03T14:18:01.574Z,27.2
2018-08-03T14:18:51.416Z,27.2
2018-08-03T14:19:41.140Z,27.2
2018-08-03T14:20:31.755Z,27.2
2018-08-03T14:21:22.116Z,27.2
2018-08-03T14:22:12.779Z,27.2
2018-08-03T14:23:01.612Z,27.1
2018-08-03T14:23:51.972Z,27.1
2018-08-03T14:24:41.817Z,27.1
2018-08-03T14:25:33.325Z,27.1
2018-08-03T14:26:22.247Z,27.1
2018-08-03T14:27:11.820Z,27.1
2018-08-03T14:28:02.085Z,27.1
2018-08-03T14:28:52.385Z,27.1
2018-08-03T14:29:42.535Z,27.1
2018-08-03T14:30:32.840Z,27.1
2018-08-03T14:31:23.446Z,27.1
2018-08-03T14:32:12.687Z,27.1
2018-08-03T14:33:02.153Z,27.1
2018-08-03T14:33:53.087Z,27.1
2018-08-03T14:34:42.359Z,27.1
2018-08-03T14:35:31.805Z,27.2
2018-08-03T14:36:22.469Z,27.1
2018-08-03T14:37:12.764Z,27.1
2018-08-03T14:38:02.954Z,27.1
2018-08-03T14:38:52.720Z,27.1
2018-08-03T14:39:42.189Z,27.1
2018-08-03T14:40:33.047Z,27.1
2018-08-03T14:41:24.365Z,27.1
2018-08-03T14:42:12.409Z,27.2
2018-08-03T14:43:02.926Z,27.1
2018-08-03T14:43:53.773Z,27.1
2018-08-03T14:44:42.461Z,27.1
2018-08-03T14:45:33.461Z,27.1
2018-08-03T14:46:24.063Z,27.1
2018-08-03T14:47:13.269Z,27.1
2018-08-03T14:48:03.006Z,27.1
2018-08-03T14:48:53.945Z,27.1
2018-08-03T14:49:44.019Z,27.1
2018-08-03T14:50:33.585Z,27.1
2018-08-03T14:51:24.094Z,27.1
2018-08-03T14:52:13.662Z,27.1
2018-08-03T14:53:03.547Z,27.1
2018-08-03T14:53:54.043Z,27.1
2018-08-03T14:54:44.350Z,27.1
2018-08-03T14:55:34.165Z,27.1
2018-08-03T14:56:24.254Z,27.1
2018-08-03T14:57:14.599Z,27.1
2018-08-03T14:58:04.587Z,27.1
2018-08-03T14:58:54.417Z,27.2
2018-08-03T14:59:44.294Z,27.1
2018-08-03T15:00:34.602Z,27.1
2018-08-03T15:01:24.450Z,27.1
2018-08-03T15:02:14.408Z,27.1
2018-08-03T15:03:03.772Z,27.1
2018-08-03T15:03:54.902Z,27.1
2018-08-03T15:04:44.677Z,27.2
2018-08-03T15:05:34.727Z,27.1
2018-08-03T15:06:25.043Z,27.1
2018-08-03T15:07:15.410Z,27.1
2018-08-03T15:08:06.829Z,27.1
2018-08-03T15:08:55.692Z,27.1
2018-08-03T15:09:45.073Z,27.1
2018-08-03T15:10:34.898Z,27.1
2018-08-03T15:11:25.474Z,27.2
2018-08-03T15:12:15.224Z,27.2
2018-08-03T15:13:06.149Z,27.1
2018-08-03T15:13:55.978Z,27.1
2018-08-03T15:14:46.268Z,27.1
2018-08-03T15:15:35.794Z,27.1
2018-08-03T15:16:26.144Z,27
2018-08-03T15:17:16.538Z,27
2018-08-03T15:18:06.261Z,27
2018-08-03T15:18:55.238Z,27
2018-08-03T15:19:47.941Z,27
2018-08-03T15:20:36.136Z,27
2018-08-03T15:21:26.798Z,27
2018-08-03T15:22:15.821Z,27
2018-08-03T15:23:06.895Z,26.9
2018-08-03T15:23:56.700Z,26.9
2018-08-03T15:24:46.216Z,26.9
2018-08-03T15:25:35.937Z,26.9
2018-08-03T15:26:26.022Z,26.9
2018-08-03T15:27:16.121Z,26.9
2018-08-03T15:28:06.754Z,26.9
2018-08-03T15:28:57.597Z,26.9
2018-08-03T15:29:47.413Z,26.9
2018-08-03T15:30:37.566Z,26.9
2018-08-03T15:31:27.531Z,26.9
2018-08-03T15:32:17.103Z,27
2018-08-03T15:33:06.609Z,27
2018-08-03T15:33:57.469Z,26.9
2018-08-03T15:34:47.806Z,27
2018-08-03T15:35:37.887Z,27
2018-08-03T15:36:27.451Z,27
2018-08-03T15:37:17.535Z,27
2018-08-03T15:38:07.254Z,27
2018-08-03T15:38:58.116Z,27
2018-08-03T15:39:47.678Z,27
2018-08-03T15:40:37.239Z,26.9
2018-08-03T15:41:28.065Z,26.9
2018-08-03T15:42:18.428Z,26.9
2018-08-03T15:43:07.383Z,27
2018-08-03T15:43:57.407Z,27
2018-08-03T15:44:48.866Z,27
2018-08-03T15:45:38.248Z,27.1
2018-08-03T15:46:28.777Z,27
2018-08-03T15:47:18.526Z,27.1
2018-08-03T15:48:08.597Z,27.1
2018-08-03T15:48:58.053Z,27.1
2018-08-03T15:49:48.498Z,27
2018-08-03T15:50:38.297Z,27.1
2018-08-03T15:51:28.329Z,27
2018-08-03T15:52:19.189Z,27.1
2018-08-03T15:53:09.233Z,27
2018-08-03T15:53:59.292Z,27
2018-08-03T15:54:48.510Z,27
2018-08-03T15:55:38.577Z,26.9
2018-08-03T15:56:29.499Z,27
2018-08-03T15:57:19.293Z,26.9
2018-08-03T15:58:09.372Z,26.9
2018-08-03T15:58:59.405Z,26.9
2018-08-03T19:18:40.262Z,26.6
2018-08-03T19:19:15.116Z,26.6
2018-08-03T19:20:06.995Z,26.6
2018-08-03T19:20:56.504Z,26.6
2018-08-03T19:21:47.826Z,26.7
2018-08-03T19:22:35.861Z,26.7
2018-08-03T19:23:41.586Z,26.7
2018-08-03T19:24:16.035Z,26.6
2018-08-03T19:25:06.455Z,26.7
2018-08-03T19:25:55.845Z,26.6
2018-08-03T19:26:46.821Z,26.6
2018-08-03T19:27:36.810Z,26.6
2018-08-03T19:28:41.287Z,26.6
2018-08-03T19:29:16.638Z,26.6
2018-08-03T19:30:06.260Z,26.6
2018-08-03T19:30:57.120Z,26.6
2018-08-03T19:31:46.632Z,26.6
2018-08-03T19:32:36.885Z,26.6
2018-08-03T19:33:27.703Z,26.6
2018-08-03T19:34:16.918Z,26.6
2018-08-03T19:35:06.718Z,26.6
2018-08-03T19:35:57.028Z,26.6
2018-08-03T19:36:47.043Z,26.6
2018-08-03T19:37:37.948Z,26.6
2018-08-03T19:38:27.180Z,26.6
2018-08-03T19:39:17.010Z,26.6
2018-08-03T19:40:07.730Z,26.6
2018-08-03T19:40:57.932Z,26.6
2018-08-03T19:41:47.750Z,26.6
2018-08-03T19:42:36.956Z,26.6
2018-08-03T19:43:28.140Z,26.6
2018-08-03T19:44:18.490Z,26.6
2018-08-03T19:45:07.579Z,26.6
2018-08-03T19:46:12.903Z,26.6
2018-08-03T19:46:47.759Z,26.5
2018-08-03T19:47:38.439Z,26.5
2018-08-03T19:48:29.295Z,26.5
2018-08-03T19:49:33.546Z,26.5
2018-08-03T19:50:22.750Z,26.5
2018-08-03T19:50:58.090Z,26.5
2018-08-03T19:51:48.383Z,26.5
2018-08-03T19:52:53.102Z,26.5
2018-08-03T19:53:28.224Z,26.4
2018-08-03T19:54:19.135Z,26.4
2018-08-03T19:55:08.669Z,26.4
2018-08-03T19:55:58.899Z,26.4
2018-08-03T19:56:49.262Z,26.4
2018-08-03T19:57:38.310Z,26.4
2018-08-03T19:58:44.758Z,26.4
2018-08-03T19:59:20.509Z,26.4
2018-08-03T20:00:09.567Z,26.5
2018-08-03T20:00:59.729Z,26.5
2018-08-03T20:01:48.782Z,26.5
2018-08-03T20:02:53.419Z,26.5
2018-08-03T20:03:28.612Z,26.4
2018-08-03T20:04:18.646Z,26.5
2018-08-03T20:05:10.664Z,26.5
2018-08-03T20:05:59.517Z,26.4
2018-08-03T20:06:49.982Z,26.4
2018-08-03T20:07:38.624Z,26.4
2018-08-03T20:08:29.489Z,26.5
2018-08-03T20:09:19.789Z,26.5
2018-08-03T20:10:09.327Z,26.5
2018-08-03T20:10:59.381Z,26.6
2018-08-03T20:11:48.994Z,26.6
2018-08-03T20:12:40.023Z,26.6
2018-08-03T20:13:30.423Z,26.5
2018-08-03T20:14:19.440Z,26.5
2018-08-03T20:15:09.770Z,26.5
2018-08-03T20:16:00.633Z,26.5
2018-08-03T20:16:50.160Z,26.5
2018-08-03T20:17:39.889Z,26.6
2018-08-03T20:18:30.745Z,26.5
2018-08-03T20:19:20.632Z,26.6
2018-08-03T20:20:10.650Z,26.6
2018-08-03T20:21:15.644Z,26.6
2018-08-03T20:21:50.218Z,26.6
2018-08-03T20:22:41.059Z,26.6
2018-08-03T20:23:31.202Z,26.6
2018-08-03T20:24:20.923Z,26.5
2018-08-03T20:25:10.654Z,26.5
2018-08-03T20:26:01.601Z,26.5
2018-08-03T20:26:51.176Z,26.5
2018-08-03T20:27:41.526Z,26.5
2018-08-03T20:28:46.038Z,26.5
2018-08-03T20:29:21.581Z,26.6
2018-08-03T20:30:11.770Z,26.6
2018-08-03T20:31:16.131Z,26.6
2018-08-03T20:31:51.942Z,26.6
2018-08-03T20:32:42.214Z,26.6
2018-08-03T20:33:31.831Z,26.6
2018-08-03T20:34:21.383Z,26.6
2018-08-03T20:35:11.910Z,26.6
2018-08-03T20:36:02.424Z,26.6
2018-08-03T20:36:52.195Z,26.6
2018-08-03T20:37:41.741Z,26.6
2018-08-03T20:38:32.993Z,26.6
2018-08-03T20:39:23.521Z,26.6
2018-08-03T20:40:12.844Z,26.6
2018-08-03T20:41:02.677Z,26.6
2018-08-03T20:41:52.858Z,26.6
2018-08-03T20:42:42.641Z,26.6
2018-08-03T20:43:32.175Z,26.6
2018-08-03T20:44:22.223Z,26.6
2018-08-03T20:45:12.639Z,26.6
2018-08-03T20:46:03.230Z,26.6
2018-08-03T20:46:52.697Z,26.6
2018-08-03T20:47:43.354Z,26.6
2018-08-03T20:48:33.389Z,26.6
2018-08-03T20:49:22.784Z,26.6
2018-08-03T20:50:12.979Z,26.6
2018-08-03T20:51:02.729Z,26.6
2018-08-03T20:51:53.522Z,26.5
2018-08-03T20:52:58.065Z,26.5
2018-08-03T20:53:33.454Z,26.5
2018-08-03T20:54:24.009Z,26.5
2018-08-03T20:55:12.771Z,26.5
2018-08-03T20:56:18.364Z,26.5
2018-08-03T20:56:53.919Z,26.5
2018-08-03T20:57:44.073Z,26.5
2018-08-03T20:58:35.690Z,26.5
2018-08-03T20:59:24.207Z,26.4
2018-08-03T21:00:29.167Z,26.4
2018-08-03T21:01:04.376Z,26.4
2018-08-03T21:01:54.476Z,26.4
2018-08-03T21:02:44.714Z,26.4
2018-08-03T21:03:33.737Z,26.4
2018-08-03T21:04:24.319Z,26.4
2018-08-03T21:06:04.929Z,26.4
2018-08-03T21:06:54.778Z,26.4
2018-08-03T21:07:59.164Z,26.4
2018-08-03T21:08:34.375Z,26.4
2018-08-03T21:09:25.346Z,26.4
2018-08-03T21:10:29.414Z,26.4
2018-08-03T21:11:04.800Z,26.4
2018-08-03T21:11:55.153Z,26.4
2018-08-03T21:12:47.216Z,26.4
2018-08-03T21:13:35.588Z,26.4
2018-08-03T21:14:25.616Z,26.4
2018-08-03T21:15:14.648Z,26.4
2018-08-03T21:16:05.297Z,26.4
2018-08-03T21:16:55.348Z,26.4
2018-08-03T21:17:46.053Z,26.4
2018-08-03T21:18:35.217Z,26.4
2018-08-03T21:19:25.000Z,26.4
2018-08-03T21:20:15.186Z,26.4
2018-08-03T21:21:05.634Z,26.4
2018-08-03T21:21:56.045Z,26.4
2018-08-03T21:22:45.427Z,26.4
2018-08-03T21:23:36.167Z,26.4
2018-08-03T21:24:25.853Z,26.4
2018-08-03T21:25:15.438Z,26.4
2018-08-03T21:26:20.692Z,26.4
2018-08-03T21:26:56.088Z,26.4
2018-08-03T21:27:45.297Z,26.4
2018-08-03T21:28:35.407Z,26.4
2018-08-03T21:29:26.687Z,26.4
2018-08-03T21:30:17.973Z,26.4
2018-08-03T21:31:06.750Z,26.4
2018-08-03T21:32:11.602Z,26.3
2018-08-03T21:32:46.495Z,26.3
2018-08-03T21:33:36.864Z,26.3
2018-08-03T21:34:26.517Z,26.3
2018-08-03T21:35:16.547Z,26.3
2018-08-03T21:36:06.535Z,26.3
2018-08-03T21:37:11.089Z,26.3
2018-08-03T21:37:47.135Z,26.4
2018-08-03T21:38:36.721Z,26.4
2018-08-03T21:39:41.637Z,26.4
2018-08-03T21:40:17.073Z,26.3
2018-08-03T21:41:06.826Z,26.3
2018-08-03T21:41:57.224Z,26.4
2018-08-03T21:43:02.209Z,26.3
2018-08-03T21:43:51.722Z,26.3
2018-08-03T21:44:27.489Z,26.3
2018-08-03T21:45:17.724Z,26.3
2018-08-03T21:46:07.014Z,26.3
2018-08-03T21:46:57.328Z,26.3
2018-08-03T21:47:47.689Z,26.3
2018-08-03T21:48:37.729Z,26.3
2018-08-03T21:49:28.181Z,26.3
2018-08-03T21:50:17.895Z,26.3
2018-08-03T21:51:07.924Z,26.3
2018-08-03T21:52:10.657Z,26.3
2018-08-03T21:52:48.178Z,26.3
2018-08-03T21:53:52.332Z,26.3
2018-08-03T21:54:27.683Z,26.3
2018-08-03T21:55:17.499Z,26.3
2018-08-03T21:56:08.658Z,26.3
2018-08-03T21:56:58.153Z,26.3
2018-08-03T21:57:48.163Z,26.3
2018-08-03T21:58:53.472Z,26.3
2018-08-03T21:59:27.547Z,26.3
2018-08-03T22:00:18.395Z,26.3
2018-08-03T22:01:08.985Z,26.3
2018-08-03T22:01:59.207Z,26.3
2018-08-03T22:03:02.223Z,26.3
2018-08-03T22:03:38.690Z,26.3
2018-08-03T22:04:27.700Z,26.3
2018-08-03T22:05:18.557Z,26.3
2018-08-03T22:06:24.122Z,26.3
2018-08-03T22:06:58.906Z,26.3
2018-08-03T22:07:49.802Z,26.3
2018-08-03T22:08:39.282Z,26.3
2018-08-03T22:09:29.029Z,26.3
2018-08-03T22:10:19.335Z,26.3
2018-08-03T22:11:09.006Z,26.3
2018-08-03T22:12:00.083Z,26.3
2018-08-03T22:12:48.836Z,26.3
2018-08-03T22:13:39.354Z,26.3
2018-08-03T22:14:30.609Z,26.3
2018-08-03T22:15:19.851Z,26.3
2018-08-03T22:16:09.752Z,26.3
2018-08-03T22:17:00.161Z,26.3
2018-08-03T22:17:50.051Z,26.3
2018-08-03T22:18:39.861Z,26.3
2018-08-03T22:19:30.032Z,26.3
2018-08-03T22:20:20.497Z,26.3
2018-08-03T22:21:10.303Z,26.3
2018-08-03T22:22:00.425Z,26.3
2018-08-03T22:22:50.440Z,26.3
2018-08-03T22:23:40.258Z,26.3
2018-08-03T22:24:32.180Z,26.3
2018-08-03T22:25:21.248Z,26.3
2018-08-03T22:26:10.729Z,26.3
2018-08-03T22:27:01.261Z,26.3
2018-08-03T22:27:51.265Z,26.3
2018-08-03T22:28:40.568Z,26.3
2018-08-03T22:29:31.412Z,26.3
2018-08-03T22:30:21.331Z,26.3
2018-08-03T22:31:11.071Z,26.3
2018-08-03T22:32:01.077Z,26.3
2018-08-03T22:32:51.526Z,26.3
2018-08-03T22:33:41.268Z,26.3
2018-08-03T22:34:30.823Z,26.3
2018-08-03T22:35:20.561Z,26.3
2018-08-03T22:36:11.222Z,26.3
2018-08-03T22:37:01.812Z,26.3
2018-08-03T22:37:51.835Z,26.3
2018-08-03T22:38:58.119Z,26.3
2018-08-03T22:39:32.264Z,26.3
2018-08-03T22:40:22.240Z,26.3
2018-08-03T22:41:11.472Z,26.3
2018-08-03T22:42:01.384Z,26.3
2018-08-03T22:42:52.081Z,26.3
2018-08-03T22:43:41.457Z,26.3
2018-08-03T22:44:46.553Z,26.2
2018-08-03T22:45:21.597Z,26.2
2018-08-03T22:46:12.575Z,26.3
2018-08-03T22:47:17.072Z,26.3
2018-08-03T22:47:52.241Z,26.2
2018-08-03T22:48:42.138Z,26.2
2018-08-03T22:49:31.912Z,26.2
2018-08-03T22:50:22.213Z,26.2
2018-08-03T22:51:12.301Z,26.2
2018-08-03T22:52:02.219Z,26.2
2018-08-03T22:52:52.140Z,26.2
2018-08-03T22:53:42.370Z,26.2
2018-08-03T22:54:33.115Z,26.2
2018-08-03T22:55:37.455Z,26.2
2018-08-03T22:56:12.708Z,26.3
2018-08-03T22:57:06.929Z,26.3
2018-08-03T22:57:52.864Z,26.2
2018-08-03T22:58:42.863Z,26.2
2018-08-03T22:59:33.240Z,26.2
2018-08-03T23:00:23.305Z,26.2
2018-08-03T23:01:14.445Z,26.2
2018-08-03T23:02:03.448Z,26.2
2018-08-03T23:02:52.380Z,26.3
2018-08-03T23:03:43.582Z,26.2
2018-08-03T23:04:33.634Z,26.2
2018-08-03T23:05:23.159Z,26.2
2018-08-03T23:06:14.067Z,26.3
2018-08-03T23:07:04.120Z,26.2
2018-08-03T23:07:53.738Z,26.2
2018-08-03T23:08:43.120Z,26.2
2018-08-03T23:09:34.394Z,26.2
2018-08-03T23:10:23.394Z,26.2
2018-08-03T23:11:13.953Z,26.2
2018-08-03T23:12:03.496Z,26.2
2018-08-03T23:12:54.106Z,26.2
2018-08-03T23:13:43.586Z,26.1
2018-08-03T23:14:33.372Z,26.1
2018-08-03T23:15:23.188Z,26.1
2018-08-03T23:16:13.502Z,26.1
2018-08-03T23:17:04.351Z,26.1
2018-08-03T23:17:54.443Z,26.1
2018-08-03T23:18:44.537Z,26.1
2018-08-03T23:19:34.823Z,26.1
2018-08-03T23:20:24.103Z,26.1
2018-08-03T23:21:14.743Z,26.1
2018-08-03T23:22:04.556Z,26.1
2018-08-03T23:22:54.441Z,26.1
2018-08-03T23:23:44.815Z,26.1
2018-08-03T23:24:35.157Z,26.1
2018-08-03T23:25:25.061Z,26.1
2018-08-03T23:26:15.636Z,26.2
2018-08-03T23:27:05.391Z,26.1
2018-08-03T23:27:55.136Z,26.1
2018-08-03T23:28:44.699Z,26.1
2018-08-03T23:29:34.997Z,26.1
2018-08-03T23:30:25.876Z,26.1
2018-08-03T23:31:14.899Z,26.1
2018-08-03T23:32:05.524Z,26.1
2018-08-03T23:32:55.842Z,26.1
2018-08-03T23:33:45.381Z,26.1
2018-08-03T23:34:35.975Z,26.1
2018-08-03T23:35:26.011Z,26.1
2018-08-03T23:36:16.073Z,26.1
2018-08-03T23:37:05.916Z,26.1
2018-08-03T23:37:55.938Z,26.1
2018-08-03T23:38:46.011Z,26.1
2018-08-03T23:39:36.388Z,26.1
2018-08-03T23:40:26.390Z,26.1
2018-08-03T23:41:16.490Z,26.1
2018-08-03T23:42:06.250Z,26.1
2018-08-03T23:42:56.321Z,26.1
2018-08-03T23:43:46.705Z,26.1
2018-08-03T23:44:36.228Z,26.1
2018-08-03T23:45:26.544Z,26.1
2018-08-03T23:46:16.379Z,26.1
2018-08-03T23:47:05.882Z,26.1
2018-08-03T23:47:56.530Z,26.1
2018-08-03T23:48:46.835Z,26.1
2018-08-03T23:49:36.406Z,26.1
2018-08-03T23:50:26.674Z,26.1
2018-08-03T23:51:16.267Z,26.1
2018-08-03T23:52:06.285Z,26.1
2018-08-03T23:52:56.989Z,26.1
2018-08-03T23:53:47.487Z,26.1
2018-08-03T23:54:37.256Z,26.1
2018-08-03T23:55:27.031Z,26.1
2018-08-03T23:56:17.660Z,26.1
2018-08-03T23:57:07.128Z,26.1
2018-08-03T23:57:58.232Z,26.1
2018-08-03T23:58:48.109Z,26.1
2018-08-03T23:59:38.275Z,26.1
